Apalachia Observed Data For Previous 48 Hours

Caption
Day and Hour Reservoir Elevation (behind dam)* Tailwater Elevation (below dam)* Average Hourly Discharge*
2/19/2018 2 AM EST 1,275.96 841.17 4,737
2/19/2018 3 AM EST 1,275.96 841.16 4,731
2/19/2018 4 AM EST 1,275.78 841.18 4,724
2/19/2018 5 AM EST 1,275.68 841.16 4,713
2/19/2018 6 AM EST 1,275.57 841.18 4,710
2/19/2018 7 AM EST 1,275.50 841.17 4,703
2/19/2018 8 AM EST 1,275.42 841.16 4,708
2/19/2018 9 AM EST 1,275.42 841.16 4,705
2/19/2018 10 AM EST 1,275.80 841.16 4,714
2/19/2018 11 AM EST 1,276.16 841.13 4,729
2/19/2018 12 PM EST 1,276.35 841.14 4,743
2/19/2018 1 PM EST 1,276.35 841.14 4,745
2/19/2018 2 PM EST 1,276.70 841.14 4,753
2/19/2018 3 PM EST 1,276.88 841.14 4,767
2/19/2018 4 PM EST 1,276.65 841.15 4,763
2/19/2018 5 PM EST 1,276.65 841.14 4,763
2/19/2018 6 PM EST 1,276.57 841.15 4,757
2/19/2018 7 PM EST 1,276.46 841.17 4,753
2/19/2018 8 PM EST 1,276.46 841.17 4,747
2/19/2018 9 PM EST 1,276.32 841.14 4,751
2/19/2018 10 PM EST 1,276.25 841.16 4,736
2/19/2018 11 PM EST 1,276.12 841.15 4,739
2/20/2018 12 AM EST 1,276.05 841.15 4,727
2/20/2018 1 AM EST 1,276.05 841.16 4,730
2/20/2018 2 AM EST 1,275.92 841.15 4,726
2/20/2018 3 AM EST 1,275.81 841.14 4,723
2/20/2018 4 AM EST 1,275.71 841.13 4,715
2/20/2018 5 AM EST 1,275.60 841.14 4,712
2/20/2018 6 AM EST 1,275.52 841.14 4,707
2/20/2018 7 AM EST 1,275.52 841.14 4,703
2/20/2018 8 AM EST 1,275.52 841.13 4,703
2/20/2018 9 AM EST 1,275.33 841.14 4,698
2/20/2018 10 AM EST 1,275.20 841.13 4,697
2/20/2018 11 AM EST 1,275.12 841.12 4,684
2/20/2018 12 PM EST 1,275.12 841.13 4,688
2/20/2018 1 PM EST 1,275.23 841.13 4,688
2/20/2018 2 PM EST 1,275.23 841.11 4,699
2/20/2018 3 PM EST 1,275.59 841.11 4,701
2/20/2018 4 PM EST 1,275.82 841.09 4,717
2/20/2018 5 PM EST 1,276.04 841.12 4,723
2/20/2018 6 PM EST 1,276.39 841.10 4,740
2/20/2018 7 PM EST 1,276.69 841.09 4,756
2/20/2018 8 PM EST 1,276.94 841.12 4,772
2/20/2018 9 PM EST 1,277.17 841.11 4,775
2/20/2018 10 PM EST 1,277.36 841.10 4,789
2/20/2018 11 PM EST 1,277.66 841.12 4,795
2/21/2018 12 AM EST 1,277.48 841.14 4,801

Elevations are in feet above sea level. Discharges are in cubic feet per second and are reported at the end of the hour.